createdAt,value
2023-04-15T00:00:56.098Z,59.0
2023-04-15T00:05:56.097Z,59.5
2023-04-15T00:10:56.096Z,60.0
2023-04-15T00:15:56.101Z,60.0
2023-04-15T00:20:56.103Z,59.5
2023-04-15T00:25:56.108Z,59.5
2023-04-15T00:30:56.160Z,60.0
2023-04-15T00:35:56.108Z,60.0
2023-04-15T00:40:56.123Z,60.5
2023-04-15T00:45:56.140Z,60.5
2023-04-15T00:50:56.129Z,60.5
2023-04-15T00:55:56.120Z,60.5
2023-04-15T01:00:56.126Z,60.5
2023-04-15T01:05:56.135Z,60.5
2023-04-15T01:10:56.132Z,60.0
2023-04-15T01:15:56.192Z,60.0
2023-04-15T01:20:56.134Z,60.0
2023-04-15T01:25:56.136Z,60.0
2023-04-15T01:30:56.142Z,60.5
2023-04-15T01:35:56.144Z,60.5
2023-04-15T01:40:56.142Z,60.5
2023-04-15T01:45:56.166Z,61.5
2023-04-15T01:55:56.155Z,65.0
2023-04-15T02:00:56.214Z,65.5
2023-04-15T02:05:56.159Z,66.5
2023-04-15T02:10:56.174Z,66.0
2023-04-15T02:15:56.179Z,66.5
2023-04-15T02:20:56.170Z,66.0
2023-04-15T02:25:56.165Z,65.5
2023-04-15T02:30:56.171Z,65.0
2023-04-15T02:35:56.181Z,65.5
2023-04-15T02:40:56.180Z,66.0
2023-04-15T02:45:56.182Z,67.0
2023-04-15T02:50:56.181Z,68.0
2023-04-15T02:55:56.195Z,68.5
2023-04-15T03:00:56.199Z,69.0
2023-04-15T03:05:56.216Z,69.5
2023-04-15T03:10:56.184Z,70.0
2023-04-15T03:15:56.272Z,70.5
2023-04-15T03:20:56.191Z,71.0
2023-04-15T03:25:56.197Z,71.5
2023-04-15T03:30:56.224Z,71.5
2023-04-15T03:35:56.209Z,72.0
2023-04-15T03:40:56.206Z,72.5
2023-04-15T03:45:56.217Z,73.0
2023-04-15T03:50:56.210Z,73.5
2023-04-15T03:55:56.217Z,73.0
2023-04-15T04:00:56.215Z,72.5
2023-04-15T04:05:56.219Z,73.0
2023-04-15T04:10:56.124Z,73.5
2023-04-15T04:15:56.290Z,73.5
2023-04-15T04:20:56.126Z,73.5
2023-04-15T04:25:56.128Z,73.5
2023-04-15T04:30:56.129Z,73.5
2023-04-15T04:35:56.124Z,73.5
2023-04-15T04:40:56.131Z,73.0
2023-04-15T04:45:56.198Z,73.0
2023-04-15T04:50:56.133Z,72.5
2023-04-15T04:55:56.135Z,72.0
2023-04-15T05:00:56.174Z,72.0
2023-04-15T05:05:56.156Z,72.0
2023-04-15T05:10:56.156Z,72.0
2023-04-15T05:15:56.162Z,71.5
2023-04-15T05:20:56.154Z,71.5
2023-04-15T05:25:56.168Z,71.5
2023-04-15T05:30:56.206Z,72.5
2023-04-15T05:35:56.160Z,72.5
2023-04-15T05:40:56.161Z,72.5
2023-04-15T05:45:56.209Z,72.5
2023-04-15T05:50:56.186Z,72.5
2023-04-15T05:55:56.268Z,72.5
2023-04-15T06:00:56.276Z,73.0
2023-04-15T06:05:56.279Z,73.0
2023-04-15T06:10:56.285Z,73.0
2023-04-15T06:15:56.326Z,73.0
2023-04-15T06:20:56.288Z,73.0
2023-04-15T06:25:56.291Z,73.0
2023-04-15T06:30:56.306Z,73.0
2023-04-15T06:35:56.296Z,72.5
2023-04-15T06:40:56.323Z,73.0
2023-04-15T06:45:56.332Z,73.0
2023-04-15T06:50:56.347Z,73.0
2023-04-15T06:55:56.314Z,73.5
2023-04-15T07:05:56.339Z,73.0
2023-04-15T07:10:56.325Z,72.5
2023-04-15T07:15:56.350Z,72.0
2023-04-15T07:20:56.343Z,72.0
2023-04-15T07:25:56.340Z,71.5
2023-04-15T07:30:56.375Z,71.5
2023-04-15T07:35:56.351Z,71.5
2023-04-15T07:40:56.369Z,71.0
2023-04-15T07:45:56.409Z,71.5
2023-04-15T07:50:56.364Z,71.0
2023-04-15T07:55:56.367Z,70.5
2023-04-15T08:00:56.376Z,70.5
2023-04-15T08:05:56.367Z,70.0
2023-04-15T08:10:56.408Z,70.5
2023-04-15T08:15:56.386Z,70.0
2023-04-15T08:20:56.430Z,69.0
2023-04-15T08:25:56.382Z,68.5
2023-04-15T08:30:56.277Z,67.5
2023-04-15T08:35:56.293Z,67.0
2023-04-15T08:40:56.294Z,66.5
2023-04-15T08:45:56.293Z,65.5
2023-04-15T08:50:56.295Z,65.0
2023-04-15T08:55:56.330Z,63.5
2023-04-15T09:00:56.317Z,63.0
2023-04-15T09:05:56.308Z,62.5
2023-04-15T09:10:56.323Z,62.0
2023-04-15T09:15:56.317Z,61.5
2023-04-15T09:20:56.320Z,61.5
2023-04-15T09:25:56.321Z,62.0
2023-04-15T09:30:56.333Z,60.5
2023-04-15T09:35:56.341Z,60.5
2023-04-15T09:40:56.324Z,60.0
2023-04-15T09:45:56.367Z,59.5
2023-04-15T09:50:56.337Z,58.5
2023-04-15T09:55:56.370Z,58.5
2023-04-15T10:00:56.379Z,59.0
2023-04-15T10:05:56.354Z,57.5
2023-04-15T10:10:56.369Z,56.5
2023-04-15T10:15:56.380Z,55.5
2023-04-15T10:20:56.367Z,56.5
2023-04-15T10:25:56.383Z,57.0
2023-04-15T10:30:56.405Z,55.5
2023-04-15T10:35:56.375Z,55.5
2023-04-15T10:40:56.395Z,55.5
2023-04-15T10:45:56.385Z,55.0
2023-04-15T10:50:56.384Z,54.5
2023-04-15T10:55:56.396Z,53.5
2023-04-15T11:00:56.479Z,55.0
2023-04-15T11:05:56.430Z,54.5
2023-04-15T11:10:56.510Z,54.0
2023-04-15T11:15:56.506Z,54.5
2023-04-15T11:20:56.397Z,55.0
2023-04-15T11:25:56.402Z,53.0
2023-04-15T11:30:56.430Z,54.5
2023-04-15T11:35:56.411Z,54.0
2023-04-15T11:40:56.422Z,53.0
2023-04-15T11:45:56.508Z,53.0
2023-04-15T11:50:56.429Z,53.5
2023-04-15T11:55:56.431Z,54.0
2023-04-15T12:00:56.442Z,52.0
2023-04-15T12:05:56.430Z,51.5
2023-04-15T12:10:56.430Z,51.5
2023-04-15T12:15:56.497Z,51.5
2023-04-15T12:20:56.482Z,52.5
2023-04-15T12:25:56.449Z,48.5
2023-04-15T12:30:56.471Z,50.0
2023-04-15T12:35:56.467Z,49.5
2023-04-15T12:40:56.458Z,49.5
2023-04-15T12:45:56.463Z,50.5
2023-04-15T12:50:56.474Z,50.0
2023-04-15T12:55:56.469Z,49.5
2023-04-15T13:00:56.493Z,48.0
2023-04-15T13:05:56.475Z,49.0
2023-04-15T13:10:56.478Z,48.0
2023-04-15T13:15:56.580Z,48.5
2023-04-15T13:20:56.488Z,47.5
2023-04-15T13:25:56.488Z,48.0
2023-04-15T13:30:56.490Z,47.5
2023-04-15T13:35:56.526Z,48.0
2023-04-15T13:40:56.517Z,48.5
2023-04-15T13:45:56.629Z,48.5
2023-04-15T13:50:56.499Z,48.0
2023-04-15T13:55:56.517Z,49.0
2023-04-15T14:00:56.544Z,49.5
2023-04-15T14:05:56.508Z,49.0
2023-04-15T14:10:56.502Z,49.5
2023-04-15T14:15:56.510Z,50.0
2023-04-15T14:20:56.521Z,50.0
2023-04-15T14:25:56.511Z,50.0
2023-04-15T14:30:56.586Z,49.5
2023-04-15T14:35:56.525Z,50.5
2023-04-15T14:40:56.523Z,50.5
2023-04-15T14:45:56.559Z,50.5
2023-04-15T14:50:56.542Z,49.5
2023-04-15T14:55:56.540Z,49.0
2023-04-15T15:00:56.540Z,49.5
2023-04-15T15:05:56.582Z,49.5
2023-04-15T15:10:56.567Z,49.5
2023-04-15T15:15:56.563Z,50.5
2023-04-15T15:20:56.555Z,51.0
2023-04-15T15:25:56.556Z,52.0
2023-04-15T15:30:56.620Z,53.0
2023-04-15T15:35:56.549Z,53.5
2023-04-15T15:40:56.559Z,54.5
2023-04-15T15:45:56.553Z,55.0
2023-04-15T15:50:56.556Z,55.5
2023-04-15T15:55:56.558Z,56.0
2023-04-15T16:00:56.581Z,56.0
2023-04-15T16:05:56.562Z,56.5
2023-04-15T16:10:56.580Z,57.5
2023-04-15T16:15:56.561Z,57.5
2023-04-15T16:20:56.562Z,58.5
2023-04-15T16:25:56.572Z,59.0
2023-04-15T16:30:56.586Z,60.0
2023-04-15T16:35:56.573Z,60.5
2023-04-15T16:40:56.568Z,60.5
2023-04-15T16:50:56.591Z,61.0
2023-04-15T16:55:56.579Z,61.5
2023-04-15T17:00:56.629Z,61.5
2023-04-15T17:05:56.584Z,61.5
2023-04-15T17:10:56.580Z,61.5
2023-04-15T17:15:56.666Z,62.0
2023-04-15T17:20:56.583Z,62.0
2023-04-15T17:25:56.593Z,62.5
2023-04-15T17:30:56.619Z,63.0
2023-04-15T17:35:56.595Z,63.5
2023-04-15T17:40:56.600Z,63.5
2023-04-15T17:45:58.545Z,64.0
2023-04-15T17:50:56.712Z,64.5
2023-04-15T17:55:56.726Z,65.0
2023-04-15T18:00:56.707Z,65.0
2023-04-15T18:05:56.726Z,65.5
2023-04-15T18:10:56.731Z,66.0
2023-04-15T18:15:56.720Z,66.0
2023-04-15T18:20:56.718Z,67.0
2023-04-15T18:25:56.718Z,67.0
2023-04-15T18:30:56.753Z,67.0
2023-04-15T18:35:56.727Z,67.5
2023-04-15T18:40:56.741Z,68.0
2023-04-15T18:45:56.778Z,68.0
2023-04-15T18:50:56.746Z,68.5
2023-04-15T18:55:56.768Z,69.5
2023-04-15T19:00:56.833Z,70.0
2023-04-15T19:05:56.744Z,71.0
2023-04-15T19:10:56.754Z,71.0
2023-04-15T19:15:56.744Z,71.5
2023-04-15T19:20:56.751Z,71.5
2023-04-15T19:25:56.752Z,71.5
2023-04-15T19:30:56.884Z,72.0
2023-04-15T19:35:56.758Z,72.0
2023-04-15T19:40:56.762Z,72.0
2023-04-15T19:45:56.804Z,72.5
2023-04-15T19:50:56.782Z,72.5
2023-04-15T19:55:56.764Z,72.5
2023-04-15T20:00:56.801Z,73.0
2023-04-15T20:05:56.775Z,73.0
2023-04-15T20:10:56.801Z,73.0
2023-04-15T20:15:56.810Z,73.5
2023-04-15T20:20:56.777Z,73.5
2023-04-15T20:25:56.775Z,74.0
2023-04-15T20:30:56.817Z,74.5
2023-04-15T20:35:56.781Z,74.5
2023-04-15T20:40:56.788Z,74.5
2023-04-15T20:45:58.730Z,75.0
2023-04-15T20:50:56.796Z,75.0
2023-04-15T20:55:56.808Z,75.0
2023-04-15T21:00:56.810Z,75.0
2023-04-15T21:05:56.802Z,75.0
2023-04-15T21:10:56.841Z,75.0
2023-04-15T21:15:56.885Z,75.5
2023-04-15T21:20:56.820Z,75.5
2023-04-15T21:25:56.821Z,75.5
2023-04-15T21:30:56.831Z,75.5
2023-04-15T21:35:56.822Z,76.0
2023-04-15T21:40:56.820Z,76.0
2023-04-15T21:46:22.158Z,76.0
2023-04-15T21:50:56.826Z,76.0
2023-04-15T21:55:56.829Z,76.5
2023-04-15T22:00:56.874Z,76.5
2023-04-15T22:05:56.839Z,76.5
2023-04-15T22:15:56.842Z,76.5
2023-04-15T22:20:56.856Z,76.5
2023-04-15T22:25:56.847Z,76.5
2023-04-15T22:30:56.906Z,76.5
2023-04-15T22:35:56.860Z,77.0
2023-04-15T22:40:56.856Z,77.0
2023-04-15T22:45:56.990Z,77.0
2023-04-15T22:50:56.870Z,77.0
2023-04-15T22:55:56.858Z,77.5
2023-04-15T23:00:56.861Z,77.5
2023-04-15T23:05:56.880Z,77.5
2023-04-15T23:10:56.871Z,78.0
2023-04-15T23:15:56.877Z,78.5
2023-04-15T23:20:56.875Z,78.5
2023-04-15T23:25:56.886Z,78.5
2023-04-15T23:30:57.968Z,78.5
2023-04-15T23:35:56.881Z,79.0
2023-04-15T23:40:56.897Z,79.0
2023-04-15T23:45:56.891Z,79.0
2023-04-15T23:50:56.894Z,79.0
2023-04-15T23:55:56.896Z,79.0
